sensor_id;sensor_type;location;lat;lon;timestamp;pressure;altitude;pressure_sealevel;temperature
20058;BMP180;10189;49.546;7.906;2022-10-16T00:01:28;97843.00;;;16.50
20058;BMP180;10189;49.546;7.906;2022-10-16T00:03:56;97845.00;;;16.50
20058;BMP180;10189;49.546;7.906;2022-10-16T00:06:23;97849.00;;;16.50
20058;BMP180;10189;49.546;7.906;2022-10-16T00:08:50;97858.00;;;16.50
20058;BMP180;10189;49.546;7.906;2022-10-16T00:11:24;97843.00;;;16.60
20058;BMP180;10189;49.546;7.906;2022-10-16T00:13:55;97856.00;;;16.60
20058;BMP180;10189;49.546;7.906;2022-10-16T00:16:22;97855.00;;;16.60
20058;BMP180;10189;49.546;7.906;2022-10-16T00:18:48;97868.00;;;16.60
20058;BMP180;10189;49.546;7.906;2022-10-16T00:21:19;97868.00;;;16.60
20058;BMP180;10189;49.546;7.906;2022-10-16T00:23:45;97856.00;;;16.70
20058;BMP180;10189;49.546;7.906;2022-10-16T00:26:16;97868.00;;;16.60
20058;BMP180;10189;49.546;7.906;2022-10-16T00:28:45;97867.00;;;16.50
20058;BMP180;10189;49.546;7.906;2022-10-16T00:31:12;97857.00;;;16.60
20058;BMP180;10189;49.546;7.906;2022-10-16T00:33:39;97855.00;;;16.60
20058;BMP180;10189;49.546;7.906;2022-10-16T00:36:08;97858.00;;;16.60
20058;BMP180;10189;49.546;7.906;2022-10-16T00:38:35;97849.00;;;16.70
20058;BMP180;10189;49.546;7.906;2022-10-16T00:41:01;97840.00;;;16.60
20058;BMP180;10189;49.546;7.906;2022-10-16T00:43:43;97832.00;;;16.70
20058;BMP180;10189;49.546;7.906;2022-10-16T00:46:26;97851.00;;;16.60
20058;BMP180;10189;49.546;7.906;2022-10-16T00:51:37;97844.00;;;16.70
20058;BMP180;10189;49.546;7.906;2022-10-16T00:54:08;97830.00;;;16.70
20058;BMP180;10189;49.546;7.906;2022-10-16T00:56:34;97835.00;;;16.70
20058;BMP180;10189;49.546;7.906;2022-10-16T00:59:07;97840.00;;;16.60
20058;BMP180;10189;49.546;7.906;2022-10-16T01:01:37;97855.00;;;16.50
20058;BMP180;10189;49.546;7.906;2022-10-16T01:04:03;97855.00;;;16.60
20058;BMP180;10189;49.546;7.906;2022-10-16T01:06:48;97854.00;;;16.70
20058;BMP180;10189;49.546;7.906;2022-10-16T01:09:36;97861.00;;;16.70
20058;BMP180;10189;49.546;7.906;2022-10-16T01:12:16;97866.00;;;16.70
20058;BMP180;10189;49.546;7.906;2022-10-16T01:15:14;97864.00;;;16.60
20058;BMP180;10189;49.546;7.906;2022-10-16T01:20:36;97875.00;;;16.80
20058;BMP180;10189;49.546;7.906;2022-10-16T01:28:59;97878.00;;;16.70
20058;BMP180;10189;49.546;7.906;2022-10-16T01:31:33;97877.00;;;16.80
20058;BMP180;10189;49.546;7.906;2022-10-16T01:34:12;97888.00;;;16.70
20058;BMP180;10189;49.546;7.906;2022-10-16T01:36:52;97879.00;;;16.70
20058;BMP180;10189;49.546;7.906;2022-10-16T01:39:24;97873.00;;;16.60
20058;BMP180;10189;49.546;7.906;2022-10-16T01:42:06;97879.00;;;16.60
20058;BMP180;10189;49.546;7.906;2022-10-16T01:44:34;97873.00;;;16.60
20058;BMP180;10189;49.546;7.906;2022-10-16T01:47:03;97870.00;;;16.70
20058;BMP180;10189;49.546;7.906;2022-10-16T01:49:36;97873.00;;;16.60
20058;BMP180;10189;49.546;7.906;2022-10-16T01:52:14;97870.00;;;16.60
20058;BMP180;10189;49.546;7.906;2022-10-16T01:54:46;97869.00;;;16.60
20058;BMP180;10189;49.546;7.906;2022-10-16T01:57:15;97873.00;;;16.60
20058;BMP180;10189;49.546;7.906;2022-10-16T01:59:49;97877.00;;;16.60
20058;BMP180;10189;49.546;7.906;2022-10-16T02:02:18;97867.00;;;16.60
20058;BMP180;10189;49.546;7.906;2022-10-16T02:04:58;97869.00;;;16.60
20058;BMP180;10189;49.546;7.906;2022-10-16T02:07:26;97866.00;;;16.60
20058;BMP180;10189;49.546;7.906;2022-10-16T02:09:52;97865.00;;;16.50
20058;BMP180;10189;49.546;7.906;2022-10-16T02:12:31;97877.00;;;16.60
20058;BMP180;10189;49.546;7.906;2022-10-16T02:14:58;97881.00;;;16.60
20058;BMP180;10189;49.546;7.906;2022-10-16T02:17:25;97882.00;;;16.60
20058;BMP180;10189;49.546;7.906;2022-10-16T02:19:54;97892.00;;;16.50
20058;BMP180;10189;49.546;7.906;2022-10-16T02:25:15;97877.00;;;16.50
20058;BMP180;10189;49.546;7.906;2022-10-16T02:30:53;97886.00;;;16.50
20058;BMP180;10189;49.546;7.906;2022-10-16T02:33:24;97892.00;;;16.50
20058;BMP180;10189;49.546;7.906;2022-10-16T02:35:51;97891.00;;;16.50
20058;BMP180;10189;49.546;7.906;2022-10-16T02:38:20;97900.00;;;16.50
20058;BMP180;10189;49.546;7.906;2022-10-16T02:40:46;97891.00;;;16.50
20058;BMP180;10189;49.546;7.906;2022-10-16T02:43:13;97876.00;;;16.50
20058;BMP180;10189;49.546;7.906;2022-10-16T02:45:39;97888.00;;;16.50
20058;BMP180;10189;49.546;7.906;2022-10-16T02:48:06;97884.00;;;16.50
20058;BMP180;10189;49.546;7.906;2022-10-16T02:50:32;97887.00;;;16.60
20058;BMP180;10189;49.546;7.906;2022-10-16T02:52:58;97891.00;;;16.60
20058;BMP180;10189;49.546;7.906;2022-10-16T02:55:24;97882.00;;;16.60
20058;BMP180;10189;49.546;7.906;2022-10-16T02:57:50;97889.00;;;16.60
20058;BMP180;10189;49.546;7.906;2022-10-16T03:00:17;97887.00;;;16.60
20058;BMP180;10189;49.546;7.906;2022-10-16T03:02:43;97887.00;;;16.60
20058;BMP180;10189;49.546;7.906;2022-10-16T03:05:10;97897.00;;;16.60
20058;BMP180;10189;49.546;7.906;2022-10-16T03:07:36;97900.00;;;16.60
20058;BMP180;10189;49.546;7.906;2022-10-16T03:10:02;97892.00;;;16.60
20058;BMP180;10189;49.546;7.906;2022-10-16T03:12:28;97900.00;;;16.60
20058;BMP180;10189;49.546;7.906;2022-10-16T03:14:55;97893.00;;;16.60
20058;BMP180;10189;49.546;7.906;2022-10-16T03:17:23;97904.00;;;16.60
20058;BMP180;10189;49.546;7.906;2022-10-16T03:19:49;97898.00;;;16.60
20058;BMP180;10189;49.546;7.906;2022-10-16T03:22:15;97899.00;;;16.60
20058;BMP180;10189;49.546;7.906;2022-10-16T03:24:41;97896.00;;;16.50
20058;BMP180;10189;49.546;7.906;2022-10-16T03:27:07;97908.00;;;16.60
20058;BMP180;10189;49.546;7.906;2022-10-16T03:29:33;97918.00;;;16.60
20058;BMP180;10189;49.546;7.906;2022-10-16T03:32:00;97911.00;;;16.50
20058;BMP180;10189;49.546;7.906;2022-10-16T03:34:26;97916.00;;;16.60
20058;BMP180;10189;49.546;7.906;2022-10-16T03:36:52;97911.00;;;16.60
20058;BMP180;10189;49.546;7.906;2022-10-16T03:39:19;97920.00;;;16.60
20058;BMP180;10189;49.546;7.906;2022-10-16T03:41:45;97914.00;;;16.60
20058;BMP180;10189;49.546;7.906;2022-10-16T03:44:12;97909.00;;;16.70
20058;BMP180;10189;49.546;7.906;2022-10-16T03:46:38;97906.00;;;16.70
20058;BMP180;10189;49.546;7.906;2022-10-16T03:49:04;97896.00;;;16.70
20058;BMP180;10189;49.546;7.906;2022-10-16T03:51:30;97890.00;;;16.70
20058;BMP180;10189;49.546;7.906;2022-10-16T03:53:56;97890.00;;;16.90
20058;BMP180;10189;49.546;7.906;2022-10-16T03:56:22;97881.00;;;16.80
20058;BMP180;10189;49.546;7.906;2022-10-16T03:58:48;97892.00;;;16.70
20058;BMP180;10189;49.546;7.906;2022-10-16T04:01:14;97895.00;;;16.70
20058;BMP180;10189;49.546;7.906;2022-10-16T04:03:40;97902.00;;;16.80
20058;BMP180;10189;49.546;7.906;2022-10-16T04:06:06;97908.00;;;16.70
20058;BMP180;10189;49.546;7.906;2022-10-16T04:08:31;97920.00;;;16.70
20058;BMP180;10189;49.546;7.906;2022-10-16T04:11:00;97920.00;;;16.70
20058;BMP180;10189;49.546;7.906;2022-10-16T04:13:27;97934.00;;;16.70
20058;BMP180;10189;49.546;7.906;2022-10-16T04:15:53;97930.00;;;16.70
20058;BMP180;10189;49.546;7.906;2022-10-16T04:18:18;97927.00;;;16.70
20058;BMP180;10189;49.546;7.906;2022-10-16T04:20:44;97928.00;;;16.80
20058;BMP180;10189;49.546;7.906;2022-10-16T04:23:10;97934.00;;;16.90
20058;BMP180;10189;49.546;7.906;2022-10-16T04:25:36;97918.00;;;16.90
20058;BMP180;10189;49.546;7.906;2022-10-16T04:28:02;97922.00;;;16.90
20058;BMP180;10189;49.546;7.906;2022-10-16T04:30:28;97913.00;;;16.90
20058;BMP180;10189;49.546;7.906;2022-10-16T04:32:54;97912.00;;;16.70
20058;BMP180;10189;49.546;7.906;2022-10-16T04:35:21;97905.00;;;16.80
20058;BMP180;10189;49.546;7.906;2022-10-16T04:37:47;97899.00;;;16.80
20058;BMP180;10189;49.546;7.906;2022-10-16T04:40:14;97895.00;;;16.60
20058;BMP180;10189;49.546;7.906;2022-10-16T04:42:41;97889.00;;;16.70
20058;BMP180;10189;49.546;7.906;2022-10-16T04:45:07;97906.00;;;16.50
20058;BMP180;10189;49.546;7.906;2022-10-16T04:47:34;97901.00;;;16.40
20058;BMP180;10189;49.546;7.906;2022-10-16T04:49:59;97907.00;;;16.50
20058;BMP180;10189;49.546;7.906;2022-10-16T04:52:28;97908.00;;;16.50
20058;BMP180;10189;49.546;7.906;2022-10-16T04:54:54;97903.00;;;16.40
20058;BMP180;10189;49.546;7.906;2022-10-16T04:57:21;97905.00;;;16.30
20058;BMP180;10189;49.546;7.906;2022-10-16T04:59:47;97904.00;;;16.30
20058;BMP180;10189;49.546;7.906;2022-10-16T05:02:13;97918.00;;;16.20
20058;BMP180;10189;49.546;7.906;2022-10-16T05:04:39;97918.00;;;16.10
20058;BMP180;10189;49.546;7.906;2022-10-16T05:07:05;97926.00;;;16.10
20058;BMP180;10189;49.546;7.906;2022-10-16T05:09:30;97922.00;;;16.00
20058;BMP180;10189;49.546;7.906;2022-10-16T05:11:56;97923.00;;;16.00
20058;BMP180;10189;49.546;7.906;2022-10-16T05:14:22;97921.00;;;15.90
20058;BMP180;10189;49.546;7.906;2022-10-16T05:16:48;97931.00;;;15.90
20058;BMP180;10189;49.546;7.906;2022-10-16T05:19:14;97944.00;;;16.00
20058;BMP180;10189;49.546;7.906;2022-10-16T05:21:40;97943.00;;;16.00
20058;BMP180;10189;49.546;7.906;2022-10-16T05:24:06;97951.00;;;16.00
20058;BMP180;10189;49.546;7.906;2022-10-16T05:26:32;97944.00;;;16.10
20058;BMP180;10189;49.546;7.906;2022-10-16T05:28:58;97945.00;;;16.10
20058;BMP180;10189;49.546;7.906;2022-10-16T05:31:24;97939.00;;;16.10
20058;BMP180;10189;49.546;7.906;2022-10-16T05:33:50;97943.00;;;16.20
20058;BMP180;10189;49.546;7.906;2022-10-16T05:36:16;97944.00;;;16.20
20058;BMP180;10189;49.546;7.906;2022-10-16T05:38:44;97943.00;;;16.20
20058;BMP180;10189;49.546;7.906;2022-10-16T05:41:10;97938.00;;;16.20
20058;BMP180;10189;49.546;7.906;2022-10-16T05:43:36;97944.00;;;16.20
20058;BMP180;10189;49.546;7.906;2022-10-16T05:46:05;97952.00;;;16.20
20058;BMP180;10189;49.546;7.906;2022-10-16T05:48:33;97961.00;;;16.20
20058;BMP180;10189;49.546;7.906;2022-10-16T05:51:02;97966.00;;;16.20
20058;BMP180;10189;49.546;7.906;2022-10-16T05:53:31;97954.00;;;16.30
20058;BMP180;10189;49.546;7.906;2022-10-16T05:55:58;97947.00;;;16.30
20058;BMP180;10189;49.546;7.906;2022-10-16T05:58:25;97973.00;;;16.30
20058;BMP180;10189;49.546;7.906;2022-10-16T06:00:57;97969.00;;;16.30
20058;BMP180;10189;49.546;7.906;2022-10-16T06:03:23;97963.00;;;16.30
20058;BMP180;10189;49.546;7.906;2022-10-16T06:05:49;97973.00;;;16.30
20058;BMP180;10189;49.546;7.906;2022-10-16T06:08:15;97973.00;;;16.30
20058;BMP180;10189;49.546;7.906;2022-10-16T06:10:42;97963.00;;;16.40
20058;BMP180;10189;49.546;7.906;2022-10-16T06:13:10;97978.00;;;16.40
20058;BMP180;10189;49.546;7.906;2022-10-16T06:15:36;97971.00;;;16.40
20058;BMP180;10189;49.546;7.906;2022-10-16T06:18:02;97976.00;;;16.50
20058;BMP180;10189;49.546;7.906;2022-10-16T06:20:27;97986.00;;;16.50
20058;BMP180;10189;49.546;7.906;2022-10-16T06:22:53;97986.00;;;16.50
20058;BMP180;10189;49.546;7.906;2022-10-16T06:25:19;97980.00;;;16.50
20058;BMP180;10189;49.546;7.906;2022-10-16T06:27:45;97992.00;;;16.50
20058;BMP180;10189;49.546;7.906;2022-10-16T06:30:11;97986.00;;;16.50
20058;BMP180;10189;49.546;7.906;2022-10-16T06:32:37;97980.00;;;16.50
20058;BMP180;10189;49.546;7.906;2022-10-16T06:35:03;97971.00;;;16.60
20058;BMP180;10189;49.546;7.906;2022-10-16T06:37:29;97977.00;;;16.60
20058;BMP180;10189;49.546;7.906;2022-10-16T06:39:55;97979.00;;;16.60
20058;BMP180;10189;49.546;7.906;2022-10-16T06:42:21;97990.00;;;16.70
20058;BMP180;10189;49.546;7.906;2022-10-16T06:44:47;97986.00;;;16.70
20058;BMP180;10189;49.546;7.906;2022-10-16T06:47:12;97989.00;;;16.70
20058;BMP180;10189;49.546;7.906;2022-10-16T06:49:38;98001.00;;;16.60
20058;BMP180;10189;49.546;7.906;2022-10-16T06:52:04;98004.00;;;16.70
20058;BMP180;10189;49.546;7.906;2022-10-16T06:54:30;97996.00;;;16.70
20058;BMP180;10189;49.546;7.906;2022-10-16T06:56:56;97987.00;;;16.70
20058;BMP180;10189;49.546;7.906;2022-10-16T06:59:22;98006.00;;;16.80
20058;BMP180;10189;49.546;7.906;2022-10-16T07:01:48;97998.00;;;16.90
20058;BMP180;10189;49.546;7.906;2022-10-16T07:04:14;98003.00;;;16.90
20058;BMP180;10189;49.546;7.906;2022-10-16T07:06:40;98015.00;;;17.10
20058;BMP180;10189;49.546;7.906;2022-10-16T07:09:10;98022.00;;;17.20
20058;BMP180;10189;49.546;7.906;2022-10-16T07:11:40;98027.00;;;17.20
20058;BMP180;10189;49.546;7.906;2022-10-16T07:14:19;98024.00;;;17.30
20058;BMP180;10189;49.546;7.906;2022-10-16T07:16:46;98018.00;;;17.40
20058;BMP180;10189;49.546;7.906;2022-10-16T07:19:13;98018.00;;;17.50
20058;BMP180;10189;49.546;7.906;2022-10-16T07:21:41;98027.00;;;17.60
20058;BMP180;10189;49.546;7.906;2022-10-16T07:24:13;98027.00;;;17.60
20058;BMP180;10189;49.546;7.906;2022-10-16T07:26:40;98036.00;;;17.60
20058;BMP180;10189;49.546;7.906;2022-10-16T07:29:21;98033.00;;;17.60
20058;BMP180;10189;49.546;7.906;2022-10-16T07:31:49;98035.00;;;17.60
20058;BMP180;10189;49.546;7.906;2022-10-16T07:34:17;98040.00;;;17.60
20058;BMP180;10189;49.546;7.906;2022-10-16T07:36:43;98034.00;;;17.60
20058;BMP180;10189;49.546;7.906;2022-10-16T07:39:09;98046.00;;;17.50
20058;BMP180;10189;49.546;7.906;2022-10-16T07:41:35;98066.00;;;17.40
20058;BMP180;10189;49.546;7.906;2022-10-16T07:44:03;98068.00;;;17.30
20058;BMP180;10189;49.546;7.906;2022-10-16T07:46:29;98073.00;;;17.30
20058;BMP180;10189;49.546;7.906;2022-10-16T07:48:55;98074.00;;;17.20
20058;BMP180;10189;49.546;7.906;2022-10-16T07:51:24;98093.00;;;17.30
20058;BMP180;10189;49.546;7.906;2022-10-16T07:53:51;98091.00;;;17.20
20058;BMP180;10189;49.546;7.906;2022-10-16T07:56:19;98108.00;;;17.30
20058;BMP180;10189;49.546;7.906;2022-10-16T07:58:45;98118.00;;;17.20
20058;BMP180;10189;49.546;7.906;2022-10-16T08:01:14;98123.00;;;17.00
20058;BMP180;10189;49.546;7.906;2022-10-16T08:03:45;98103.00;;;17.00
20058;BMP180;10189;49.546;7.906;2022-10-16T08:06:11;98130.00;;;17.00
20058;BMP180;10189;49.546;7.906;2022-10-16T08:08:37;98111.00;;;17.10
20058;BMP180;10189;49.546;7.906;2022-10-16T08:11:03;98111.00;;;17.10
20058;BMP180;10189;49.546;7.906;2022-10-16T08:13:30;98120.00;;;17.20
20058;BMP180;10189;49.546;7.906;2022-10-16T08:15:56;98116.00;;;17.20
20058;BMP180;10189;49.546;7.906;2022-10-16T08:18:22;98118.00;;;17.30
20058;BMP180;10189;49.546;7.906;2022-10-16T08:20:58;98120.00;;;17.40
20058;BMP180;10189;49.546;7.906;2022-10-16T08:23:28;98128.00;;;17.60
20058;BMP180;10189;49.546;7.906;2022-10-16T08:25:55;98116.00;;;17.50
20058;BMP180;10189;49.546;7.906;2022-10-16T08:28:22;98127.00;;;17.80
20058;BMP180;10189;49.546;7.906;2022-10-16T08:30:48;98123.00;;;18.00
20058;BMP180;10189;49.546;7.906;2022-10-16T08:33:14;98135.00;;;18.10
20058;BMP180;10189;49.546;7.906;2022-10-16T08:35:40;98137.00;;;18.20
20058;BMP180;10189;49.546;7.906;2022-10-16T08:38:06;98140.00;;;18.30
20058;BMP180;10189;49.546;7.906;2022-10-16T08:40:36;98131.00;;;18.50
20058;BMP180;10189;49.546;7.906;2022-10-16T08:49:11;98137.00;;;19.10
20058;BMP180;10189;49.546;7.906;2022-10-16T08:51:39;98151.00;;;19.30
20058;BMP180;10189;49.546;7.906;2022-10-16T08:54:29;98132.00;;;19.50
20058;BMP180;10189;49.546;7.906;2022-10-16T08:57:04;98142.00;;;19.70
20058;BMP180;10189;49.546;7.906;2022-10-16T08:59:32;98137.00;;;19.90
20058;BMP180;10189;49.546;7.906;2022-10-16T09:01:58;98134.00;;;20.10
20058;BMP180;10189;49.546;7.906;2022-10-16T09:20:53;98151.00;;;21.00
20058;BMP180;10189;49.546;7.906;2022-10-16T09:23:29;98146.00;;;21.30
20058;BMP180;10189;49.546;7.906;2022-10-16T09:25:58;98155.00;;;21.00
20058;BMP180;10189;49.546;7.906;2022-10-16T09:28:24;98158.00;;;21.30
20058;BMP180;10189;49.546;7.906;2022-10-16T09:30:50;98156.00;;;21.30
20058;BMP180;10189;49.546;7.906;2022-10-16T09:33:21;98159.00;;;21.20
20058;BMP180;10189;49.546;7.906;2022-10-16T09:35:58;98164.00;;;21.20
20058;BMP180;10189;49.546;7.906;2022-10-16T09:38:35;98170.00;;;21.30
20058;BMP180;10189;49.546;7.906;2022-10-16T09:41:20;98173.00;;;21.40
20058;BMP180;10189;49.546;7.906;2022-10-16T09:43:57;98167.00;;;21.60
20058;BMP180;10189;49.546;7.906;2022-10-16T09:46:33;98179.00;;;21.20
20058;BMP180;10189;49.546;7.906;2022-10-16T09:49:23;98187.00;;;20.90
20058;BMP180;10189;49.546;7.906;2022-10-16T09:51:50;98184.00;;;21.00
20058;BMP180;10189;49.546;7.906;2022-10-16T09:54:20;98187.00;;;20.90
20058;BMP180;10189;49.546;7.906;2022-10-16T09:56:48;98189.00;;;21.10
20058;BMP180;10189;49.546;7.906;2022-10-16T09:59:21;98197.00;;;21.10
20058;BMP180;10189;49.546;7.906;2022-10-16T10:01:54;98192.00;;;21.40
20058;BMP180;10189;49.546;7.906;2022-10-16T10:04:23;98189.00;;;21.50
20058;BMP180;10189;49.546;7.906;2022-10-16T10:06:57;98189.00;;;21.70
20058;BMP180;10189;49.546;7.906;2022-10-16T10:09:26;98187.00;;;21.80
20058;BMP180;10189;49.546;7.906;2022-10-16T10:12:04;98187.00;;;21.70
20058;BMP180;10189;49.546;7.906;2022-10-16T10:14:42;98184.00;;;21.70
20058;BMP180;10189;49.546;7.906;2022-10-16T10:17:26;98194.00;;;21.70
20058;BMP180;10189;49.546;7.906;2022-10-16T10:20:01;98178.00;;;21.80
20058;BMP180;10189;49.546;7.906;2022-10-16T10:22:42;98186.00;;;22.10
20058;BMP180;10189;49.546;7.906;2022-10-16T10:33:54;98195.00;;;21.60
20058;BMP180;10189;49.546;7.906;2022-10-16T10:39:08;98194.00;;;22.00
20058;BMP180;10189;49.546;7.906;2022-10-16T10:47:51;98208.00;;;21.60
20058;BMP180;10189;49.546;7.906;2022-10-16T10:50:58;98202.00;;;21.90
20058;BMP180;10189;49.546;7.906;2022-10-16T10:53:49;98210.00;;;21.60
20058;BMP180;10189;49.546;7.906;2022-10-16T10:56:59;98207.00;;;21.70
20058;BMP180;10189;49.546;7.906;2022-10-16T11:00:21;98218.00;;;21.60
20058;BMP180;10189;49.546;7.906;2022-10-16T11:05:42;98213.00;;;21.80
20058;BMP180;10189;49.546;7.906;2022-10-16T11:11:03;98207.00;;;21.90
20058;BMP180;10189;49.546;7.906;2022-10-16T11:17:05;98210.00;;;22.60
20058;BMP180;10189;49.546;7.906;2022-10-16T11:22:39;98212.00;;;22.70
20058;BMP180;10189;49.546;7.906;2022-10-16T11:25:29;98209.00;;;22.50
20058;BMP180;10189;49.546;7.906;2022-10-16T11:28:20;98202.00;;;22.50
20058;BMP180;10189;49.546;7.906;2022-10-16T11:34:15;98188.00;;;22.50
20058;BMP180;10189;49.546;7.906;2022-10-16T11:36:51;98190.00;;;22.60
20058;BMP180;10189;49.546;7.906;2022-10-16T11:39:28;98194.00;;;23.10
20058;BMP180;10189;49.546;7.906;2022-10-16T11:42:29;98195.00;;;23.50
20058;BMP180;10189;49.546;7.906;2022-10-16T11:45:53;98192.00;;;23.40
20058;BMP180;10189;49.546;7.906;2022-10-16T11:50:53;98172.00;;;23.80
20058;BMP180;10189;49.546;7.906;2022-10-16T11:56:19;98180.00;;;23.90
20058;BMP180;10189;49.546;7.906;2022-10-16T11:59:20;98181.00;;;23.30
20058;BMP180;10189;49.546;7.906;2022-10-16T12:07:39;98191.00;;;23.50
20058;BMP180;10189;49.546;7.906;2022-10-16T12:10:23;98193.00;;;23.60
20058;BMP180;10189;49.546;7.906;2022-10-16T12:12:50;98195.00;;;23.10
20058;BMP180;10189;49.546;7.906;2022-10-16T12:15:22;98198.00;;;22.80
20058;BMP180;10189;49.546;7.906;2022-10-16T12:17:50;98185.00;;;22.80
20058;BMP180;10189;49.546;7.906;2022-10-16T12:20:32;98186.00;;;23.30
20058;BMP180;10189;49.546;7.906;2022-10-16T12:23:05;98181.00;;;23.80
20058;BMP180;10189;49.546;7.906;2022-10-16T12:25:38;98178.00;;;23.90
20058;BMP180;10189;49.546;7.906;2022-10-16T12:30:42;98180.00;;;23.90
20058;BMP180;10189;49.546;7.906;2022-10-16T12:33:32;98174.00;;;23.60
20058;BMP180;10189;49.546;7.906;2022-10-16T12:36:01;98179.00;;;23.60
20058;BMP180;10189;49.546;7.906;2022-10-16T12:41:09;98178.00;;;23.40
20058;BMP180;10189;49.546;7.906;2022-10-16T12:43:42;98169.00;;;23.20
20058;BMP180;10189;49.546;7.906;2022-10-16T12:48:37;98176.00;;;23.10
20058;BMP180;10189;49.546;7.906;2022-10-16T12:57:17;98187.00;;;23.10
20058;BMP180;10189;49.546;7.906;2022-10-16T13:11:51;98191.00;;;22.60
20058;BMP180;10189;49.546;7.906;2022-10-16T13:17:45;98188.00;;;23.00
20058;BMP180;10189;49.546;7.906;2022-10-16T13:26:48;98195.00;;;23.00
20058;BMP180;10189;49.546;7.906;2022-10-16T13:29:16;98182.00;;;23.10
20058;BMP180;10189;49.546;7.906;2022-10-16T13:31:43;98190.00;;;23.40
20058;BMP180;10189;49.546;7.906;2022-10-16T13:34:20;98192.00;;;23.40
20058;BMP180;10189;49.546;7.906;2022-10-16T13:36:50;98199.00;;;23.30
20058;BMP180;10189;49.546;7.906;2022-10-16T13:39:30;98200.00;;;23.30
20058;BMP180;10189;49.546;7.906;2022-10-16T13:42:22;98201.00;;;23.30
20058;BMP180;10189;49.546;7.906;2022-10-16T13:44:52;98201.00;;;23.10
20058;BMP180;10189;49.546;7.906;2022-10-16T13:47:24;98200.00;;;23.00
20058;BMP180;10189;49.546;7.906;2022-10-16T13:50:18;98198.00;;;22.70
20058;BMP180;10189;49.546;7.906;2022-10-16T13:52:44;98201.00;;;22.70
20058;BMP180;10189;49.546;7.906;2022-10-16T13:55:16;98191.00;;;22.60
20058;BMP180;10189;49.546;7.906;2022-10-16T13:57:44;98195.00;;;22.70
20058;BMP180;10189;49.546;7.906;2022-10-16T14:00:24;98206.00;;;22.70
20058;BMP180;10189;49.546;7.906;2022-10-16T14:03:03;98199.00;;;22.70
20058;BMP180;10189;49.546;7.906;2022-10-16T14:05:30;98201.00;;;22.80
20058;BMP180;10189;49.546;7.906;2022-10-16T14:07:57;98203.00;;;22.70
20058;BMP180;10189;49.546;7.906;2022-10-16T14:10:27;98200.00;;;22.70
20058;BMP180;10189;49.546;7.906;2022-10-16T14:13:05;98205.00;;;22.70
20058;BMP180;10189;49.546;7.906;2022-10-16T14:15:35;98209.00;;;22.80
20058;BMP180;10189;49.546;7.906;2022-10-16T14:18:03;98209.00;;;22.90
20058;BMP180;10189;49.546;7.906;2022-10-16T14:20:33;98210.00;;;22.90
20058;BMP180;10189;49.546;7.906;2022-10-16T14:23:30;98213.00;;;23.00
20058;BMP180;10189;49.546;7.906;2022-10-16T14:26:15;98213.00;;;23.00
20058;BMP180;10189;49.546;7.906;2022-10-16T14:28:42;98221.00;;;23.00
20058;BMP180;10189;49.546;7.906;2022-10-16T14:31:35;98215.00;;;22.80
20058;BMP180;10189;49.546;7.906;2022-10-16T14:34:03;98223.00;;;22.70
20058;BMP180;10189;49.546;7.906;2022-10-16T14:36:30;98216.00;;;22.70
20058;BMP180;10189;49.546;7.906;2022-10-16T14:39:17;98209.00;;;22.60
20058;BMP180;10189;49.546;7.906;2022-10-16T14:41:48;98202.00;;;22.60
20058;BMP180;10189;49.546;7.906;2022-10-16T14:44:17;98215.00;;;22.70
20058;BMP180;10189;49.546;7.906;2022-10-16T14:46:44;98223.00;;;22.60
20058;BMP180;10189;49.546;7.906;2022-10-16T14:51:39;98216.00;;;22.70
20058;BMP180;10189;49.546;7.906;2022-10-16T14:54:11;98223.00;;;22.60
20058;BMP180;10189;49.546;7.906;2022-10-16T14:56:56;98214.00;;;22.70
20058;BMP180;10189;49.546;7.906;2022-10-16T14:59:38;98218.00;;;22.70
20058;BMP180;10189;49.546;7.906;2022-10-16T15:02:34;98236.00;;;22.60
20058;BMP180;10189;49.546;7.906;2022-10-16T15:05:23;98226.00;;;22.40
20058;BMP180;10189;49.546;7.906;2022-10-16T15:07:54;98232.00;;;22.40
20058;BMP180;10189;49.546;7.906;2022-10-16T15:10:27;98228.00;;;22.10
20058;BMP180;10189;49.546;7.906;2022-10-16T15:12:54;98233.00;;;22.20
20058;BMP180;10189;49.546;7.906;2022-10-16T15:17:56;98235.00;;;22.10
20058;BMP180;10189;49.546;7.906;2022-10-16T15:20:29;98236.00;;;22.00
20058;BMP180;10189;49.546;7.906;2022-10-16T15:22:57;98231.00;;;21.90
20058;BMP180;10189;49.546;7.906;2022-10-16T15:25:37;98233.00;;;21.70
20058;BMP180;10189;49.546;7.906;2022-10-16T15:28:05;98234.00;;;21.70
20058;BMP180;10189;49.546;7.906;2022-10-16T15:30:33;98224.00;;;21.60
20058;BMP180;10189;49.546;7.906;2022-10-16T15:32:59;98234.00;;;21.40
20058;BMP180;10189;49.546;7.906;2022-10-16T15:35:25;98231.00;;;21.30
20058;BMP180;10189;49.546;7.906;2022-10-16T15:37:51;98232.00;;;21.30
20058;BMP180;10189;49.546;7.906;2022-10-16T15:40:19;98229.00;;;21.30
20058;BMP180;10189;49.546;7.906;2022-10-16T15:42:46;98230.00;;;21.30
20058;BMP180;10189;49.546;7.906;2022-10-16T15:45:13;98229.00;;;21.40
20058;BMP180;10189;49.546;7.906;2022-10-16T15:47:41;98237.00;;;21.40
20058;BMP180;10189;49.546;7.906;2022-10-16T15:50:10;98231.00;;;21.40
20058;BMP180;10189;49.546;7.906;2022-10-16T15:52:38;98236.00;;;21.30
20058;BMP180;10189;49.546;7.906;2022-10-16T15:55:10;98238.00;;;21.10
20058;BMP180;10189;49.546;7.906;2022-10-16T15:57:37;98234.00;;;21.00
20058;BMP180;10189;49.546;7.906;2022-10-16T16:00:11;98242.00;;;20.80
20058;BMP180;10189;49.546;7.906;2022-10-16T16:02:43;98238.00;;;20.70
20058;BMP180;10189;49.546;7.906;2022-10-16T16:05:10;98243.00;;;20.70
20058;BMP180;10189;49.546;7.906;2022-10-16T16:07:38;98248.00;;;20.60
20058;BMP180;10189;49.546;7.906;2022-10-16T16:10:08;98244.00;;;20.60
20058;BMP180;10189;49.546;7.906;2022-10-16T16:12:36;98241.00;;;20.50
20058;BMP180;10189;49.546;7.906;2022-10-16T16:15:07;98233.00;;;20.40
20058;BMP180;10189;49.546;7.906;2022-10-16T16:17:35;98240.00;;;20.40
20058;BMP180;10189;49.546;7.906;2022-10-16T16:20:04;98237.00;;;20.30
20058;BMP180;10189;49.546;7.906;2022-10-16T16:22:30;98236.00;;;20.20
20058;BMP180;10189;49.546;7.906;2022-10-16T16:24:56;98246.00;;;20.00
20058;BMP180;10189;49.546;7.906;2022-10-16T16:27:22;98251.00;;;19.90
20058;BMP180;10189;49.546;7.906;2022-10-16T16:29:50;98250.00;;;19.80
20058;BMP180;10189;49.546;7.906;2022-10-16T16:32:16;98253.00;;;19.60
20058;BMP180;10189;49.546;7.906;2022-10-16T16:34:42;98249.00;;;19.50